createdAt,value
2018-07-13T00:00:21.582Z,56054.23
2018-07-13T00:02:50.769Z,56077.88
2018-07-13T00:05:19.984Z,56062.46
2018-07-13T00:07:49.165Z,56041.89
2018-07-13T00:10:18.283Z,56091.25
2018-07-13T00:12:47.532Z,56068.62
2018-07-13T00:15:16.683Z,56066.57
2018-07-13T00:17:45.939Z,56073.77
2018-07-13T00:20:15.154Z,56079.94
2018-07-13T00:22:44.338Z,56074.80
2018-07-13T00:25:13.503Z,56061.43
2018-07-13T00:27:42.669Z,56072.74
2018-07-13T00:30:11.836Z,56038.81
2018-07-13T00:32:40.973Z,56067.60
2018-07-13T00:35:10.084Z,56068.62
2018-07-13T00:37:39.230Z,56069.65
2018-07-13T00:40:08.363Z,56066.57
2018-07-13T00:42:37.487Z,56072.74
2018-07-13T00:45:06.661Z,56085.08
2018-07-13T00:47:35.767Z,56087.14
2018-07-13T00:50:04.764Z,56059.37
2018-07-13T00:52:33.886Z,56079.94
2018-07-13T00:55:03.070Z,56090.22
2018-07-13T00:57:32.776Z,56067.60
2018-07-13T01:00:01.969Z,56085.08
2018-07-13T01:02:31.220Z,56068.62
2018-07-13T01:05:00.384Z,56027.50
2018-07-13T01:07:29.559Z,56091.25
2018-07-13T01:09:58.708Z,56061.43
2018-07-13T01:12:27.861Z,56105.64
2018-07-13T01:14:58.065Z,56078.91
2018-07-13T01:17:27.206Z,56069.65
2018-07-13T01:19:56.378Z,56090.22
2018-07-13T01:22:25.505Z,56073.77
2018-07-13T01:24:54.661Z,56060.40
2018-07-13T01:27:28.106Z,56094.33
2018-07-13T01:29:58.152Z,56094.33
2018-07-13T01:32:27.762Z,56090.22
2018-07-13T01:34:59.392Z,56095.36
2018-07-13T01:37:28.530Z,56026.47
2018-07-13T01:39:57.714Z,56087.14
2018-07-13T01:42:27.092Z,56054.23
2018-07-13T01:44:56.217Z,56069.65
2018-07-13T01:47:25.374Z,56066.57
2018-07-13T01:49:54.560Z,56082.00
2018-07-13T01:52:24.396Z,56093.30
2018-07-13T01:54:54.507Z,56074.80
2018-07-13T01:57:23.641Z,56077.88
2018-07-13T01:59:52.847Z,56067.60
2018-07-13T02:02:21.996Z,56075.82
2018-07-13T02:04:51.123Z,56104.62
2018-07-13T02:07:20.292Z,56044.98
2018-07-13T02:09:52.041Z,56096.39
2018-07-13T02:12:21.300Z,56106.67
2018-07-13T02:14:50.758Z,56087.14
2018-07-13T02:17:19.892Z,56075.82
2018-07-13T02:19:49.087Z,56089.19
2018-07-13T02:22:18.048Z,56098.45
2018-07-13T02:24:47.301Z,56089.19
2018-07-13T02:27:17.190Z,56049.09
2018-07-13T02:29:46.311Z,56071.71
2018-07-13T02:32:15.444Z,56087.14
2018-07-13T02:34:44.596Z,56094.33
2018-07-13T02:37:13.733Z,56086.11
2018-07-13T02:39:48.763Z,56109.76
2018-07-13T02:42:17.895Z,56083.02
2018-07-13T02:44:47.053Z,56044.98
2018-07-13T02:47:16.225Z,56085.08
2018-07-13T02:49:45.396Z,56082.00
2018-07-13T02:52:14.552Z,56111.81
2018-07-13T02:54:43.729Z,56082.00
2018-07-13T02:57:12.884Z,56091.25
2018-07-13T02:59:42.022Z,56075.82
2018-07-13T03:02:11.133Z,56109.76
2018-07-13T03:04:40.248Z,56071.71
2018-07-13T03:07:09.411Z,56084.05
2018-07-13T03:09:38.557Z,56098.45
2018-07-13T03:12:07.827Z,56091.25
2018-07-13T03:14:36.956Z,56075.82
2018-07-13T03:17:06.111Z,56090.22
2018-07-13T03:19:35.308Z,56106.67
2018-07-13T03:22:04.502Z,56074.80
2018-07-13T03:24:33.659Z,56091.25
2018-07-13T03:27:02.790Z,56079.94
2018-07-13T03:29:31.947Z,56088.16
2018-07-13T03:32:01.126Z,56096.39
2018-07-13T03:34:30.327Z,56097.42
2018-07-13T03:36:59.488Z,56088.16
2018-07-13T03:39:28.595Z,56099.47
2018-07-13T03:41:57.707Z,56121.07
2018-07-13T03:44:26.834Z,56082.00
2018-07-13T03:46:56.052Z,56088.16
2018-07-13T03:49:25.206Z,56071.71
2018-07-13T03:51:54.397Z,56105.64
2018-07-13T03:54:23.570Z,56040.86
2018-07-13T03:56:52.713Z,56088.16
2018-07-13T03:59:21.867Z,56077.88
2018-07-13T04:01:51.033Z,56078.91
2018-07-13T04:04:20.225Z,56075.82
2018-07-13T04:06:49.381Z,56062.46
2018-07-13T04:09:18.630Z,56069.65
2018-07-13T04:11:47.774Z,56089.19
2018-07-13T04:14:16.912Z,56086.11
2018-07-13T04:16:46.077Z,56060.40
2018-07-13T04:19:15.171Z,56064.51
2018-07-13T04:21:44.312Z,56057.32
2018-07-13T04:24:13.433Z,56127.23
2018-07-13T04:26:45.275Z,56083.02
2018-07-13T04:29:14.406Z,56097.42
2018-07-13T04:31:43.547Z,56046.00
2018-07-13T04:34:12.761Z,56028.52
2018-07-13T04:36:41.922Z,56073.77
2018-07-13T04:39:12.659Z,56062.46
2018-07-13T04:41:42.037Z,56085.08
2018-07-13T04:44:11.155Z,56057.32
2018-07-13T04:46:40.326Z,56056.29
2018-07-13T04:49:09.479Z,56091.25
2018-07-13T04:51:38.631Z,56038.81
2018-07-13T04:54:07.792Z,56072.74
2018-07-13T04:56:36.917Z,56079.94
2018-07-13T04:59:06.189Z,56041.89
2018-07-13T05:01:35.293Z,56055.26
2018-07-13T05:04:04.440Z,56088.16
2018-07-13T05:06:40.354Z,56050.12
2018-07-13T05:09:09.902Z,56070.68
2018-07-13T05:11:39.071Z,56055.26
2018-07-13T05:14:08.170Z,56013.10
2018-07-13T05:16:37.299Z,56031.61
2018-07-13T05:19:06.512Z,56065.54
2018-07-13T05:21:35.647Z,56076.85
2018-07-13T05:24:04.735Z,56064.51
2018-07-13T05:26:33.860Z,56033.67
2018-07-13T05:29:03.004Z,56079.94
2018-07-13T05:31:32.110Z,56046.00
2018-07-13T05:34:01.254Z,56032.64
2018-07-13T05:36:30.394Z,56055.26
2018-07-13T05:38:59.543Z,56058.34
2018-07-13T05:41:28.652Z,56060.40
2018-07-13T05:43:57.796Z,56057.32
2018-07-13T05:46:26.973Z,56035.72
2018-07-13T05:48:56.120Z,56049.09
2018-07-13T05:51:28.911Z,56020.30
2018-07-13T05:53:57.884Z,55969.92
2018-07-13T05:56:27.039Z,55914.39
2018-07-13T05:58:56.315Z,55866.07
2018-07-13T06:01:25.448Z,55852.70
2018-07-13T06:03:54.614Z,55822.88
2018-07-13T06:06:23.787Z,55817.75
2018-07-13T06:08:53.017Z,55849.62
2018-07-13T06:11:22.148Z,55855.79
2018-07-13T06:13:51.313Z,55814.66
2018-07-13T06:16:20.476Z,55822.88
2018-07-13T06:18:49.625Z,55836.25
2018-07-13T06:21:18.751Z,55789.98
2018-07-13T06:23:47.937Z,55799.24
2018-07-13T06:26:17.078Z,55773.53
2018-07-13T06:28:46.207Z,55800.27
2018-07-13T06:31:15.347Z,55809.52
2018-07-13T06:33:44.484Z,55838.31
2018-07-13T06:36:13.629Z,55874.29
2018-07-13T06:38:42.818Z,55821.86
2018-07-13T06:41:11.935Z,55821.86
2018-07-13T06:43:41.161Z,55820.83
2018-07-13T06:46:10.331Z,55823.91
2018-07-13T06:48:39.478Z,55843.45
2018-07-13T06:51:08.720Z,55817.75
2018-07-13T06:53:38.066Z,55857.84
2018-07-13T06:56:07.230Z,55933.93
2018-07-13T06:58:53.589Z,55969.92
2018-07-13T07:01:22.754Z,55991.51
2018-07-13T07:04:26.579Z,56005.90
2018-07-13T07:06:56.252Z,56010.02
2018-07-13T07:09:26.448Z,56037.78
2018-07-13T07:13:09.515Z,56028.52
2018-07-13T07:15:38.976Z,56071.71
2018-07-13T07:18:08.157Z,56028.52
2018-07-13T07:20:37.296Z,56026.47
2018-07-13T07:23:06.459Z,56049.09
2018-07-13T07:25:35.615Z,56030.58
2018-07-13T07:28:04.737Z,56053.20
2018-07-13T07:30:33.896Z,56050.12
2018-07-13T07:33:03.046Z,56010.02
2018-07-13T07:35:32.199Z,56053.20
2018-07-13T07:38:01.119Z,55997.68
2018-07-13T07:40:30.542Z,56020.30
2018-07-13T07:42:59.704Z,56007.96
2018-07-13T07:45:28.847Z,56018.24
2018-07-13T07:47:57.978Z,56026.47
2018-07-13T07:50:27.088Z,56012.07
2018-07-13T07:52:56.240Z,56000.76
2018-07-13T07:55:25.388Z,55990.48
2018-07-13T07:57:54.521Z,55970.95
2018-07-13T08:00:23.666Z,56012.07
2018-07-13T08:02:53.073Z,55988.43
2018-07-13T08:05:22.209Z,55985.34
2018-07-13T08:07:51.749Z,55990.48
2018-07-13T08:10:20.934Z,55977.11
2018-07-13T08:12:50.322Z,55999.73
2018-07-13T08:15:19.482Z,55977.11
2018-07-13T08:17:48.672Z,55984.31
2018-07-13T08:20:24.564Z,55985.34
2018-07-13T08:22:57.466Z,55977.11
2018-07-13T08:25:27.579Z,55983.28
2018-07-13T08:28:00.725Z,55974.03
2018-07-13T08:30:43.256Z,55966.83
2018-07-13T08:33:12.602Z,55974.03
2018-07-13T08:35:41.717Z,56012.07
2018-07-13T08:38:10.855Z,55986.37
2018-07-13T08:40:40.037Z,56016.19
2018-07-13T08:43:09.161Z,55965.80
2018-07-13T08:45:38.291Z,55975.06
2018-07-13T08:48:07.493Z,55957.58
2018-07-13T08:50:36.684Z,55930.84
2018-07-13T08:53:05.989Z,55847.56
2018-07-13T08:55:35.121Z,55816.71
2018-07-13T08:58:04.285Z,55831.11
2018-07-13T09:00:33.470Z,55838.31
2018-07-13T09:03:02.580Z,55819.80
2018-07-13T09:05:31.759Z,55811.57
2018-07-13T09:08:00.913Z,55800.27
2018-07-13T09:10:30.037Z,55833.17
2018-07-13T09:12:59.358Z,55822.88
2018-07-13T09:15:28.416Z,55814.66
2018-07-13T09:17:57.575Z,55822.88
2018-07-13T09:20:26.702Z,55831.11
2018-07-13T09:22:55.821Z,55853.73
2018-07-13T09:25:24.984Z,55809.52
2018-07-13T09:27:54.116Z,55828.02
2018-07-13T09:30:23.261Z,55828.02
2018-07-13T09:32:52.411Z,55844.48
2018-07-13T09:35:21.517Z,55831.11
2018-07-13T09:37:50.818Z,55855.79
2018-07-13T09:40:19.929Z,55830.08
2018-07-13T09:42:49.074Z,55804.38
2018-07-13T09:45:18.244Z,55803.35
2018-07-13T09:47:47.433Z,55857.84
2018-07-13T09:50:16.586Z,55814.66
2018-07-13T09:52:45.727Z,55835.22
2018-07-13T09:55:14.875Z,55830.08
2018-07-13T09:57:44.017Z,55844.48
2018-07-13T10:00:13.925Z,55823.91
2018-07-13T10:02:42.872Z,55818.77
2018-07-13T10:05:12.351Z,55868.12
2018-07-13T10:07:41.525Z,55849.62
2018-07-13T10:10:10.941Z,55831.11
2018-07-13T10:12:40.258Z,55897.94
2018-07-13T10:15:09.779Z,55880.46
2018-07-13T10:17:38.975Z,55880.46
2018-07-13T10:20:08.133Z,55898.97
2018-07-13T10:22:37.692Z,55869.15
2018-07-13T10:25:06.927Z,55888.69
2018-07-13T10:27:38.683Z,55887.66
2018-07-13T10:30:11.908Z,55915.42
2018-07-13T10:32:42.763Z,55923.65
2018-07-13T10:35:11.936Z,55941.13
2018-07-13T10:37:42.070Z,55967.86
2018-07-13T10:40:12.124Z,55933.93
2018-07-13T10:42:41.362Z,55975.06
2018-07-13T10:45:10.457Z,55968.89
2018-07-13T10:47:39.575Z,55953.46
2018-07-13T10:50:08.768Z,55962.72
2018-07-13T10:52:37.880Z,55964.78
2018-07-13T10:55:07.100Z,55950.38
2018-07-13T10:57:36.274Z,55929.82
2018-07-13T11:00:05.400Z,55941.13
2018-07-13T11:02:34.520Z,55954.49
2018-07-13T11:05:03.657Z,55934.96
2018-07-13T11:07:33.000Z,55971.97
2018-07-13T11:10:02.161Z,55939.07
2018-07-13T11:12:31.301Z,55932.90
2018-07-13T11:15:00.512Z,55953.46
2018-07-13T11:17:29.656Z,55957.58
2018-07-13T11:19:58.849Z,55961.69
2018-07-13T11:22:28.020Z,55958.61
2018-07-13T11:24:57.177Z,55954.49
2018-07-13T11:27:26.370Z,55958.61
2018-07-13T11:29:55.509Z,55921.59
2018-07-13T11:32:24.624Z,55943.18
2018-07-13T11:34:53.763Z,55964.78
2018-07-13T11:37:23.002Z,55945.24
2018-07-13T11:39:52.162Z,55931.87
2018-07-13T11:42:21.352Z,55951.41
2018-07-13T11:44:50.496Z,55960.66
2018-07-13T11:47:19.833Z,55932.90
2018-07-13T11:49:49.201Z,55914.39
2018-07-13T11:52:18.383Z,55905.14
2018-07-13T11:54:47.537Z,55966.83
2018-07-13T11:57:16.636Z,55905.14
2018-07-13T11:59:45.779Z,55926.73
2018-07-13T12:02:14.940Z,55938.04
2018-07-13T12:04:44.106Z,55914.39
2018-07-13T12:07:13.244Z,55918.50
2018-07-13T12:09:42.432Z,55938.04
2018-07-13T12:12:11.557Z,55891.77
2018-07-13T12:14:40.713Z,55893.83
2018-07-13T12:17:09.836Z,55947.30
2018-07-13T12:19:38.819Z,55907.20
2018-07-13T12:22:07.959Z,55926.73
2018-07-13T12:24:37.129Z,55919.54
2018-07-13T12:27:06.449Z,55933.93
2018-07-13T12:29:35.556Z,55907.20
2018-07-13T12:32:04.671Z,55910.28
2018-07-13T12:34:33.811Z,55924.68
2018-07-13T12:37:02.977Z,55911.31
2018-07-13T12:39:32.175Z,55911.31
2018-07-13T12:42:01.351Z,55892.80
2018-07-13T12:44:31.480Z,55905.14
2018-07-13T12:47:00.602Z,55876.35
2018-07-13T12:49:29.751Z,55897.94
2018-07-13T12:51:58.893Z,55876.35
2018-07-13T12:54:28.181Z,55889.72
2018-07-13T12:56:57.301Z,55891.77
2018-07-13T12:59:26.567Z,55897.94
2018-07-13T13:01:55.757Z,55891.77
2018-07-13T13:04:24.935Z,55884.57
2018-07-13T13:06:54.083Z,55913.36
2018-07-13T13:09:23.250Z,55889.72
2018-07-13T13:11:52.428Z,55874.29
2018-07-13T13:14:21.605Z,55874.29
2018-07-13T13:16:50.769Z,55882.52
2018-07-13T13:19:20.077Z,55895.89
2018-07-13T13:21:49.331Z,55896.91
2018-07-13T13:24:18.452Z,55869.15
2018-07-13T13:26:47.600Z,55885.61
2018-07-13T13:29:16.756Z,55886.63
2018-07-13T13:31:45.946Z,55871.21
2018-07-13T13:34:15.089Z,55913.36
2018-07-13T13:36:44.215Z,55866.07
2018-07-13T13:39:13.470Z,55883.55
2018-07-13T13:41:42.653Z,55890.75
2018-07-13T13:44:11.824Z,55874.29
2018-07-13T13:46:40.980Z,55888.69
2018-07-13T13:49:10.290Z,55870.18
2018-07-13T13:51:39.404Z,55890.75
2018-07-13T13:54:08.515Z,55893.83
2018-07-13T13:56:37.665Z,55898.97
2018-07-13T13:59:06.851Z,55866.07
2018-07-13T14:01:36.038Z,55888.69
2018-07-13T14:04:05.184Z,55890.75
2018-07-13T14:06:34.366Z,55884.57
2018-07-13T14:09:04.548Z,55870.18
2018-07-13T14:11:33.764Z,55882.52
2018-07-13T14:14:02.905Z,55898.97
2018-07-13T14:16:33.126Z,55858.87
2018-07-13T14:19:02.304Z,55894.86
2018-07-13T14:21:31.415Z,55901.03
2018-07-13T14:24:00.591Z,55872.24
2018-07-13T14:26:29.754Z,55903.08
2018-07-13T14:28:58.941Z,55884.57
2018-07-13T14:31:28.053Z,55884.57
2018-07-13T14:33:57.188Z,55840.36
2018-07-13T14:39:23.167Z,55876.35
2018-07-13T14:41:52.346Z,55882.52
2018-07-13T14:44:21.461Z,55895.89
2018-07-13T14:46:50.719Z,55875.32
2018-07-13T14:49:19.767Z,55883.55
2018-07-13T14:51:48.918Z,55880.46
2018-07-13T14:54:18.058Z,55896.91
2018-07-13T14:56:47.204Z,55891.77
2018-07-13T14:59:16.344Z,55893.83
2018-07-13T15:01:45.449Z,55907.20
2018-07-13T15:04:14.634Z,55913.36
2018-07-13T15:06:43.736Z,55931.87
2018-07-13T15:09:12.753Z,55914.39
2018-07-13T15:11:41.896Z,55870.18
2018-07-13T15:14:11.083Z,55902.05
2018-07-13T15:16:40.275Z,55888.69
2018-07-13T15:19:11.000Z,55903.08
2018-07-13T15:21:40.180Z,55892.80
2018-07-13T15:24:09.356Z,55916.45
2018-07-13T15:26:38.507Z,55930.84
2018-07-13T15:29:07.718Z,55892.80
2018-07-13T15:31:36.818Z,55888.69
2018-07-13T15:34:06.269Z,55930.84
2018-07-13T15:36:35.442Z,55904.11
2018-07-13T15:39:05.052Z,55900.00
2018-07-13T15:41:34.168Z,55927.76
2018-07-13T15:44:03.079Z,55933.93
2018-07-13T15:46:32.323Z,55915.42
2018-07-13T15:49:01.527Z,55912.34
2018-07-13T15:51:30.725Z,55942.16
2018-07-13T15:53:59.917Z,55926.73
2018-07-13T15:56:29.062Z,55942.16
2018-07-13T15:58:58.312Z,55916.45
2018-07-13T16:01:27.409Z,55952.44
2018-07-13T16:03:56.591Z,55918.50
2018-07-13T16:06:25.830Z,55918.50
2018-07-13T16:08:54.931Z,55894.86
2018-07-13T16:11:23.859Z,55931.87
2018-07-13T16:13:53.081Z,55880.46
2018-07-13T16:16:22.222Z,55894.86
2018-07-13T16:18:51.423Z,55878.41
2018-07-13T16:21:20.548Z,55923.65
2018-07-13T16:23:49.679Z,55919.54
2018-07-13T16:26:18.814Z,55931.87
2018-07-13T16:28:47.854Z,55915.42
2018-07-13T16:31:17.025Z,55929.82
2018-07-13T16:33:46.230Z,55928.79
2018-07-13T16:36:15.376Z,55920.56
2018-07-13T16:38:45.103Z,55925.70
2018-07-13T16:41:14.272Z,55935.98
2018-07-13T16:43:44.544Z,55955.52
2018-07-13T16:46:13.701Z,55948.32
2018-07-13T16:48:42.817Z,55929.82
2018-07-13T16:51:11.964Z,55940.10
2018-07-13T16:53:41.102Z,55952.44
2018-07-13T16:56:10.272Z,55931.87
2018-07-13T16:58:39.437Z,55954.49
2018-07-13T17:01:08.584Z,55990.48
2018-07-13T17:03:37.800Z,55944.21
2018-07-13T17:06:06.879Z,55919.54
2018-07-13T17:08:35.970Z,55948.32
2018-07-13T17:11:05.094Z,55931.87
2018-07-13T17:13:37.185Z,55938.04
2018-07-13T17:16:06.583Z,55934.96
2018-07-13T17:18:36.529Z,55948.32
2018-07-13T17:21:05.643Z,55953.46
2018-07-13T17:23:34.755Z,55942.16
2018-07-13T17:26:03.914Z,55928.79
2018-07-13T17:28:33.130Z,55944.21
2018-07-13T17:31:02.247Z,55964.78
2018-07-13T17:33:31.340Z,55933.93
2018-07-13T17:36:00.475Z,55964.78
2018-07-13T17:38:29.668Z,55949.35
2018-07-13T17:40:58.845Z,55937.01
2018-07-13T17:43:27.937Z,55952.44
2018-07-13T17:45:57.046Z,55943.18
2018-07-13T17:48:26.155Z,55955.52
2018-07-13T17:50:55.286Z,55950.38
2018-07-13T17:53:24.422Z,55942.16
2018-07-13T17:55:53.562Z,55956.55
2018-07-13T17:58:22.638Z,55958.61
2018-07-13T18:00:51.951Z,55968.89
2018-07-13T18:03:20.952Z,55952.44
2018-07-13T18:05:50.055Z,55958.61
2018-07-13T18:08:19.168Z,55960.66
2018-07-13T18:10:48.293Z,55985.34
2018-07-13T18:13:17.406Z,55962.72
2018-07-13T18:15:46.509Z,55957.58
2018-07-13T18:18:15.609Z,55976.09
2018-07-13T18:20:44.724Z,55960.66
2018-07-13T18:23:13.801Z,55965.80
2018-07-13T18:25:42.910Z,55980.20
2018-07-13T18:28:12.055Z,55946.27
2018-07-13T18:30:41.102Z,55981.23
2018-07-13T18:33:10.224Z,55978.14
2018-07-13T18:35:39.325Z,55964.78
2018-07-13T18:38:08.555Z,55986.37
2018-07-13T18:40:37.661Z,55968.89
2018-07-13T18:43:06.866Z,55991.51
2018-07-13T18:45:36.012Z,55986.37
2018-07-13T18:48:05.178Z,55991.51
2018-07-13T18:50:34.302Z,55983.28
2018-07-13T18:53:03.488Z,55958.61
2018-07-13T18:55:32.591Z,56003.85
2018-07-13T18:58:01.649Z,55971.97
2018-07-13T19:00:30.796Z,56032.64
2018-07-13T19:02:59.930Z,55966.83
2018-07-13T19:05:29.056Z,56005.90
2018-07-13T19:07:58.204Z,56014.13
2018-07-13T19:10:27.317Z,55973.00
2018-07-13T19:12:56.433Z,55993.57
2018-07-13T19:15:25.560Z,55995.62
2018-07-13T19:17:54.720Z,55976.09
2018-07-13T19:20:25.982Z,55989.45
2018-07-13T19:22:55.292Z,56002.82
2018-07-13T19:25:24.423Z,56003.85
2018-07-13T19:27:53.720Z,56012.07
2018-07-13T19:30:23.004Z,55989.45
2018-07-13T19:32:52.054Z,56005.90
2018-07-13T19:35:21.175Z,55992.54
2018-07-13T19:37:50.346Z,55987.40
2018-07-13T19:40:19.510Z,55999.73
2018-07-13T19:42:48.483Z,55993.57
2018-07-13T19:45:17.606Z,55993.57
2018-07-13T19:47:46.858Z,56017.21
2018-07-13T19:50:15.977Z,55990.48
2018-07-13T19:52:45.195Z,56001.79
2018-07-13T19:55:14.273Z,56000.76
2018-07-13T19:57:43.380Z,56046.00
2018-07-13T20:00:12.546Z,56011.05
2018-07-13T20:02:41.629Z,56015.16
2018-07-13T20:05:10.763Z,56006.93
2018-07-13T20:07:39.923Z,56038.81
2018-07-13T20:10:09.128Z,56029.55
2018-07-13T20:12:38.075Z,56021.33
2018-07-13T20:15:07.208Z,56022.36
2018-07-13T20:17:36.375Z,56025.44
2018-07-13T20:20:08.260Z,56006.93
2018-07-13T20:22:37.907Z,55997.68
2018-07-13T20:25:07.702Z,56014.13
2018-07-13T20:27:37.813Z,56012.07
2018-07-13T20:30:07.347Z,56033.67
2018-07-13T20:32:36.486Z,56027.50
2018-07-13T20:35:05.646Z,56027.50
2018-07-13T20:37:35.213Z,55993.57
2018-07-13T20:40:04.331Z,56008.99
2018-07-13T20:42:33.431Z,56014.13
2018-07-13T20:45:02.572Z,56012.07
2018-07-13T20:47:31.752Z,56016.19
2018-07-13T20:50:00.836Z,56017.21
2018-07-13T20:52:29.864Z,56025.44
2018-07-13T20:54:59.092Z,56035.72
2018-07-13T20:57:28.243Z,56027.50
2018-07-13T20:59:57.402Z,56012.07
2018-07-13T21:02:26.574Z,56041.89
2018-07-13T21:04:55.683Z,56042.92
2018-07-13T21:07:24.809Z,55993.57
2018-07-13T21:09:53.946Z,56015.16
2018-07-13T21:12:23.170Z,56016.19
2018-07-13T21:14:52.287Z,56029.55
2018-07-13T21:17:21.366Z,56001.79
2018-07-13T21:19:50.496Z,56011.05
2018-07-13T21:22:19.553Z,56019.27
2018-07-13T21:24:48.688Z,56004.87
2018-07-13T21:27:17.915Z,56002.82
2018-07-13T21:29:47.106Z,55993.57
2018-07-13T21:32:16.260Z,55991.51
2018-07-13T21:34:45.449Z,56003.85
2018-07-13T21:37:14.536Z,56024.41
2018-07-13T21:39:43.685Z,56021.33
2018-07-13T21:42:12.826Z,56023.38
2018-07-13T21:44:41.977Z,56024.41
2018-07-13T21:47:11.364Z,56012.07
2018-07-13T21:49:40.486Z,56004.87
2018-07-13T21:52:09.590Z,56010.02
2018-07-13T21:54:38.722Z,56005.90
2018-07-13T21:57:07.939Z,56022.36
2018-07-13T21:59:37.142Z,56020.30
2018-07-13T22:02:06.311Z,56020.30
2018-07-13T22:04:35.454Z,56014.13
2018-07-13T22:07:04.631Z,56028.52
2018-07-13T22:09:33.756Z,56025.44
2018-07-13T22:12:02.912Z,56019.27
2018-07-13T22:14:32.061Z,56019.27
2018-07-13T22:17:01.204Z,56034.70
2018-07-13T22:19:30.295Z,56053.20
2018-07-13T22:21:59.434Z,56005.90
2018-07-13T22:24:28.525Z,56021.33
2018-07-13T22:26:57.675Z,56034.70
2018-07-13T22:29:26.779Z,56042.92
2018-07-13T22:31:55.927Z,56016.19
2018-07-13T22:34:25.035Z,56040.86
2018-07-13T22:36:54.215Z,56026.47
2018-07-13T22:39:23.294Z,56006.93
2018-07-13T22:41:52.184Z,56025.44
2018-07-13T22:44:21.324Z,56030.58
2018-07-13T22:46:50.385Z,56035.72
2018-07-13T22:49:19.602Z,56037.78
2018-07-13T22:51:48.760Z,56018.24
2018-07-13T22:54:17.925Z,56026.47
2018-07-13T22:56:47.005Z,56018.24
2018-07-13T22:59:16.215Z,56035.72
2018-07-13T23:01:45.397Z,56020.30
2018-07-13T23:04:14.510Z,56049.09
2018-07-13T23:06:43.636Z,56044.98
2018-07-13T23:09:12.832Z,56044.98
2018-07-13T23:11:41.947Z,56035.72
2018-07-13T23:14:11.081Z,56043.95
2018-07-13T23:16:40.207Z,56028.52
2018-07-13T23:19:09.340Z,56055.26
2018-07-13T23:21:38.531Z,56047.03
2018-07-13T23:24:07.690Z,56034.70
2018-07-13T23:26:36.825Z,56063.48
2018-07-13T23:29:06.032Z,56001.79
2018-07-13T23:31:35.141Z,56038.81
2018-07-13T23:34:04.250Z,56031.61
2018-07-13T23:36:33.321Z,56068.62
2018-07-13T23:39:02.475Z,56043.95
2018-07-13T23:41:31.616Z,56056.29
2018-07-13T23:44:00.702Z,56033.67
2018-07-13T23:46:29.836Z,56027.50
2018-07-13T23:48:58.973Z,56036.75
2018-07-13T23:51:28.655Z,56046.00
2018-07-13T23:53:57.749Z,56026.47
2018-07-13T23:56:26.844Z,56040.86
2018-07-13T23:58:56.008Z,56088.16
